YQI weather

Yarmouth Airport
Yarmouth, Nova Scotia, Canada

Public forecast

Using degrees Celsius for public forecast. Weather courtesy of forecast.io.

METAR (pilot weather report)

Retrieved 2019/08/17 16:00 UTC (47 minutes ago):

CYQI 171600Z 20012KT 15SM FEW025 FEW220 FEW250 21/18 A3013 RMK CU1CC1CI1 CU TR SLP204 DENSITY ALT 700FT

TAF (pilot weather forecast)

Retrieved 2019/08/17 12:42 UTC (4 hours ago):

TAF CYQI 171139Z 1712/1724 16006KT 4SM -DZ BR OVC008 TEMPO 1712/1713 6SM BR OVC010 FM171300 19006KT P6SM BKN010 TEMPO 1713/1714 BKN008 FM171400 19012G22KT P6SM FEW010 FM172000 16012G22KT P6SM SCT010 BKN070 BECMG 1722/1724 14010KT RMK NXT FCST BY 171800Z